Portada
METAR-TAF:

METAR-TAF

Aeropuertos :

Aeropuerto Internacional de Lusaka

Lusaka, Zambia

latitud: 15-19-51S, longitud: 028-27-09E, altitud: 1152 m

Observación

El informe se hizo hace 1 hora y 38 minutos, a las 19:00 UTC
Viento 2 kt del sureste
Temperatura 20°C
Humedad 30%
Presión 1018 hPa
Visibilidad 10 km o más
sin nubes por debajo de 1500 m y sin presencia de cumulonimbus.

METAR: FLKK 131900Z 14002KT CAVOK 20/02 Q1018

Hora: 22:38 (20:38 UTC)


TAF: falta

Observaciones y pronósticos meteorológicos de más de 4000 aeropuertos (mensajes METAR y TAF).

Los puntos amarillos y rojos representan las estaciones disponibles.

Ponga el ratón en el punto deseado para ver el nombre de la estación.

Haga clic para ver las observaciones y los pronósticos meteorológicos.

Para cambiar el mapa : haga clic en los botones verdes con una cruz de color negro para hacer un zoom, en el botón verde con un guión para alejar o en las flechas verdes para mapas adyacentes.


METAR-TAF: